createdAt,value
2023-07-18T00:03:32.230Z,98570.09
2023-07-18T00:08:35.918Z,98565.75
2023-07-18T00:13:39.523Z,98568.88
2023-07-18T00:18:44.642Z,98560.66
2023-07-18T00:23:48.216Z,98566.41
2023-07-18T00:28:54.714Z,98560.19
2023-07-18T00:33:59.862Z,98560.19
2023-07-18T00:39:04.948Z,98554.91
2023-07-18T00:44:08.469Z,98549.78
2023-07-18T00:49:14.484Z,98541.97
2023-07-18T00:54:18.986Z,98501.25
2023-07-18T00:59:23.861Z,98522.47
2023-07-18T01:04:28.916Z,98511.59
2023-07-18T01:09:33.428Z,98511.22
2023-07-18T01:14:36.968Z,98507.06
2023-07-18T01:19:43.105Z,98493.88
2023-07-18T01:24:47.992Z,98493.84
2023-07-18T01:29:52.892Z,98485.13
2023-07-18T01:34:56.474Z,98475.53
2023-07-18T01:40:01.544Z,98484.75
2023-07-18T01:45:08.614Z,98474.50
2023-07-18T01:50:13.241Z,98471.94
2023-07-18T01:55:19.175Z,98467.59
2023-07-18T02:00:23.311Z,98465.63
2023-07-18T02:05:29.330Z,98463.50
2023-07-18T02:10:34.390Z,98455.00
2023-07-18T02:15:38.125Z,98445.91
2023-07-18T02:20:42.100Z,98432.72
2023-07-18T02:25:48.503Z,98422.44
2023-07-18T02:30:55.237Z,98416.09
2023-07-18T02:35:58.824Z,98427.13
2023-07-18T02:41:03.856Z,98416.22
2023-07-18T02:46:07.995Z,98419.91
2023-07-18T02:51:11.973Z,98423.34
2023-07-18T02:56:16.978Z,98438.31
2023-07-18T03:01:21.299Z,98419.84
2023-07-18T03:06:25.624Z,98408.84
2023-07-18T03:11:30.770Z,98402.25
2023-07-18T03:16:34.991Z,98396.09
2023-07-18T03:21:38.924Z,98388.00
2023-07-18T03:26:43.883Z,98389.50
2023-07-18T03:31:47.825Z,98382.91
2023-07-18T03:36:51.556Z,98381.16
2023-07-18T03:41:56.479Z,98379.13
2023-07-18T03:47:15.065Z,98371.19
2023-07-18T03:52:19.902Z,98368.31
2023-07-18T03:57:24.979Z,98354.00
2023-07-18T04:02:29.023Z,98363.28
2023-07-18T04:07:33.287Z,98356.31
2023-07-18T04:12:38.337Z,98355.50
2023-07-18T04:17:42.138Z,98377.41
2023-07-18T04:22:45.923Z,98370.00
2023-07-18T04:27:50.942Z,98358.47
2023-07-18T04:32:54.523Z,98356.97
2023-07-18T04:37:58.181Z,98348.38
2023-07-18T04:43:03.451Z,98346.44
2023-07-18T04:48:08.165Z,98344.97
2023-07-18T04:53:12.407Z,98330.59
2023-07-18T04:58:17.430Z,98335.63
2023-07-18T05:03:21.292Z,98330.25
2023-07-18T05:08:24.869Z,98322.38
2023-07-18T05:13:30.298Z,98322.53
2023-07-18T05:18:33.849Z,98305.97
2023-07-18T05:23:37.713Z,98310.06
2023-07-18T05:28:42.749Z,98305.50
2023-07-18T05:33:46.330Z,98305.66
2023-07-18T05:38:49.982Z,98300.75
2023-07-18T05:43:54.996Z,98293.56
2023-07-18T05:48:58.616Z,98294.25
2023-07-18T05:54:02.242Z,98275.13
2023-07-18T05:59:07.981Z,98283.94
2023-07-18T06:04:12.645Z,98252.16
2023-07-18T06:09:16.705Z,98259.19
2023-07-18T06:14:22.113Z,98253.97
2023-07-18T06:19:25.679Z,98245.13
2023-07-18T06:24:29.367Z,98243.50
2023-07-18T06:29:34.629Z,98239.66
2023-07-18T06:34:42.534Z,98241.69
2023-07-18T06:39:46.435Z,98239.81
2023-07-18T06:44:51.367Z,98238.50
2023-07-18T06:49:55.001Z,98240.00
2023-07-18T06:54:58.629Z,98228.34
2023-07-18T07:00:08.203Z,98219.00
2023-07-18T07:05:12.293Z,98220.56
2023-07-18T07:10:15.928Z,98216.25
2023-07-18T07:15:21.514Z,98203.75
2023-07-18T07:20:25.882Z,98199.66
2023-07-18T07:25:31.317Z,98182.09
2023-07-18T07:30:36.526Z,98182.69
2023-07-18T07:35:40.155Z,98161.53
2023-07-18T07:40:44.129Z,98158.38
2023-07-18T07:45:49.145Z,98156.69
2023-07-18T07:50:52.737Z,98150.22
2023-07-18T07:55:56.914Z,98145.22
2023-07-18T08:01:02.891Z,98139.91
2023-07-18T08:06:06.545Z,98132.31
2023-07-18T08:11:10.051Z,98122.00
2023-07-18T08:16:15.063Z,98111.47
2023-07-18T08:21:20.851Z,98097.03
2023-07-18T08:26:24.721Z,98097.09
2023-07-18T08:31:29.851Z,98082.47
2023-07-18T08:36:36.986Z,98083.78
2023-07-18T08:41:44.607Z,98073.63
2023-07-18T08:46:49.873Z,98076.59
2023-07-18T08:51:55.015Z,98064.31
2023-07-18T08:56:59.174Z,98068.50
2023-07-18T09:02:04.329Z,98058.69
2023-07-18T09:07:09.367Z,98048.22
2023-07-18T09:12:13.085Z,98042.41
2023-07-18T09:17:18.199Z,98018.19
2023-07-18T09:22:22.455Z,98030.34
2023-07-18T09:27:26.034Z,98025.34
2023-07-18T09:32:31.988Z,98031.53
2023-07-18T09:37:46.996Z,98019.63
2023-07-18T09:42:52.522Z,98003.13
2023-07-18T09:47:59.896Z,97993.69
2023-07-18T09:53:08.183Z,97988.59
2023-07-18T09:58:14.549Z,97995.16
2023-07-18T10:03:19.796Z,97985.06
2023-07-18T10:08:33.601Z,97975.16
2023-07-18T10:13:44.164Z,97984.28
2023-07-18T10:18:49.890Z,97962.06
2023-07-18T10:23:53.773Z,97939.19
2023-07-18T10:29:02.334Z,97953.16
2023-07-18T10:34:12.265Z,97932.09
2023-07-18T10:39:15.830Z,97910.47
2023-07-18T10:44:29.897Z,97913.16
2023-07-18T10:49:39.236Z,97908.75
2023-07-18T10:54:46.449Z,97890.19
2023-07-18T10:59:49.966Z,97898.38
2023-07-18T11:04:55.804Z,97889.28
2023-07-18T11:09:59.304Z,97887.81
2023-07-18T11:15:04.622Z,97873.81
2023-07-18T11:20:14.040Z,97849.09
2023-07-18T11:25:17.729Z,97844.53
2023-07-18T11:30:24.184Z,97831.72
2023-07-18T11:35:29.719Z,97838.50
2023-07-18T11:40:34.762Z,97857.00
2023-07-18T11:45:38.957Z,97867.03
2023-07-18T11:50:46.383Z,97856.25
2023-07-18T11:55:50.307Z,97869.38
2023-07-18T12:00:59.442Z,97865.34
2023-07-18T12:06:04.892Z,97847.16
2023-07-18T12:11:10.514Z,97828.44
2023-07-18T12:16:14.091Z,97817.84
2023-07-18T12:21:18.982Z,97811.22
2023-07-18T12:26:24.876Z,97812.16
2023-07-18T12:31:29.497Z,97822.16
2023-07-18T12:36:34.544Z,97820.38
2023-07-18T12:41:38.137Z,97821.81
2023-07-18T12:46:41.446Z,97826.66
2023-07-18T12:51:46.642Z,97826.94
2023-07-18T12:56:50.356Z,97821.91
2023-07-18T13:01:54.029Z,97811.78
2023-07-18T13:06:58.656Z,97792.56
2023-07-18T13:12:02.398Z,97783.75
2023-07-18T13:17:05.878Z,97771.97
2023-07-18T13:22:13.555Z,97755.78
2023-07-18T13:27:20.142Z,97758.00
2023-07-18T13:32:24.537Z,97735.44
2023-07-18T13:37:29.554Z,97702.97
2023-07-18T13:42:33.169Z,97694.25
2023-07-18T13:47:36.884Z,97696.56
2023-07-18T13:52:42.234Z,97685.91
2023-07-18T13:57:46.039Z,97669.78
2023-07-18T14:02:50.877Z,97660.69
2023-07-18T14:07:55.988Z,97645.44
2023-07-18T14:13:00.009Z,97639.72
2023-07-18T14:18:04.413Z,97629.50
2023-07-18T14:23:10.207Z,97620.38
2023-07-18T14:28:13.856Z,97620.56
2023-07-18T14:33:19.011Z,97610.31
2023-07-18T14:38:24.771Z,97597.19
2023-07-18T14:43:32.291Z,97599.06
2023-07-18T14:48:35.992Z,97595.16
2023-07-18T14:53:40.962Z,97596.69
2023-07-18T14:58:44.875Z,97597.41
2023-07-18T15:03:48.289Z,97604.38
2023-07-18T15:08:54.523Z,97595.00
2023-07-18T15:13:58.268Z,97594.00
2023-07-18T15:19:01.866Z,97583.44
2023-07-18T15:24:07.592Z,97584.75
2023-07-18T15:29:13.573Z,97571.97
2023-07-18T15:34:17.519Z,97571.41
2023-07-18T15:39:22.530Z,97566.47
2023-07-18T15:44:26.144Z,97559.41
2023-07-18T15:49:29.735Z,97544.41
2023-07-18T15:54:34.855Z,97555.00
2023-07-18T15:59:38.804Z,97541.56
2023-07-18T16:04:42.420Z,97527.41
2023-07-18T16:09:56.838Z,97514.78
2023-07-18T16:15:02.180Z,97511.19
2023-07-18T16:20:09.355Z,97521.53
2023-07-18T16:25:14.464Z,97512.91
2023-07-18T16:30:19.313Z,97507.50
2023-07-18T16:35:22.924Z,97501.75
2023-07-18T16:40:28.102Z,97508.13
2023-07-18T16:45:33.325Z,97497.66
2023-07-18T16:50:37.188Z,97483.25
2023-07-18T16:55:43.318Z,97470.38
2023-07-18T17:00:47.526Z,97465.53
2023-07-18T17:05:50.864Z,97471.63
2023-07-18T17:10:56.109Z,97469.56
2023-07-18T17:16:01.232Z,97473.47
2023-07-18T17:21:06.351Z,97449.06
2023-07-18T17:26:11.598Z,97456.09
2023-07-18T17:31:15.205Z,97448.28
2023-07-18T17:36:20.512Z,97447.25
2023-07-18T17:41:25.686Z,97429.44
2023-07-18T17:46:32.532Z,97421.56
2023-07-18T17:51:36.197Z,97407.16
2023-07-18T17:56:41.660Z,97389.16
2023-07-18T18:01:45.543Z,97382.97
2023-07-18T18:06:50.091Z,97377.56
2023-07-18T18:11:57.393Z,97355.34
2023-07-18T18:17:01.108Z,97360.19
2023-07-18T18:22:05.143Z,97361.34
2023-07-18T18:27:10.357Z,97348.28
2023-07-18T18:32:14.066Z,97335.44
2023-07-18T18:37:17.790Z,97333.25
2023-07-18T18:42:22.858Z,97315.09
2023-07-18T18:47:27.529Z,97314.50
2023-07-18T18:52:31.086Z,97285.63
2023-07-18T18:57:38.709Z,97286.34
2023-07-18T19:02:43.867Z,97279.19
2023-07-18T19:07:47.985Z,97266.97
2023-07-18T19:12:52.973Z,97264.00
2023-07-18T19:17:56.597Z,97260.06
2023-07-18T19:23:00.257Z,97244.50
2023-07-18T19:28:06.457Z,97247.63
2023-07-18T19:33:10.822Z,97234.91
2023-07-18T19:38:15.378Z,97216.66
2023-07-18T19:43:20.421Z,97216.06
2023-07-18T19:48:23.961Z,97206.00
2023-07-18T19:53:27.853Z,97202.53
2023-07-18T19:58:35.660Z,97198.09
2023-07-18T20:03:56.709Z,97194.41
2023-07-18T20:09:02.637Z,97187.09
2023-07-18T20:14:07.638Z,97188.09
2023-07-18T20:19:11.903Z,97175.03
2023-07-18T20:24:16.866Z,97175.72
2023-07-18T20:29:21.765Z,97157.97
2023-07-18T20:34:25.411Z,97149.44
2023-07-18T20:39:29.274Z,97159.56
2023-07-18T20:44:34.650Z,97160.13
2023-07-18T20:49:39.367Z,97156.69
2023-07-18T20:54:42.882Z,97148.94
2023-07-18T20:59:49.063Z,97131.50
2023-07-18T21:04:52.644Z,97125.53
2023-07-18T21:09:57.678Z,97119.97
2023-07-18T21:15:02.618Z,97125.72
2023-07-18T21:20:09.889Z,97113.03
2023-07-18T21:25:13.431Z,97119.22
2023-07-18T21:30:18.601Z,97103.56
2023-07-18T21:35:25.206Z,97093.34
2023-07-18T21:40:29.089Z,97106.50
2023-07-18T21:45:34.209Z,97100.00
2023-07-18T21:50:37.814Z,97094.00
2023-07-18T21:55:43.375Z,97096.63
2023-07-18T22:00:48.402Z,97092.81
2023-07-18T22:05:52.034Z,97083.22
2023-07-18T22:10:55.515Z,97092.91
2023-07-18T22:16:01.439Z,97084.94
2023-07-18T22:21:05.370Z,97073.13
2023-07-18T22:26:14.329Z,97062.81
2023-07-18T22:31:20.167Z,97053.47
2023-07-18T22:36:24.020Z,97053.97
2023-07-18T22:41:29.095Z,97044.75
2023-07-18T22:46:34.199Z,97044.78
2023-07-18T22:51:37.810Z,97038.38
2023-07-18T22:56:41.302Z,97039.84
2023-07-18T23:01:46.238Z,97029.19
2023-07-18T23:06:49.899Z,97018.91
2023-07-18T23:11:55.559Z,97006.91
2023-07-18T23:17:00.818Z,97004.47
2023-07-18T23:22:04.453Z,96998.34
2023-07-18T23:27:08.378Z,96988.97
2023-07-18T23:32:13.971Z,96990.88
2023-07-18T23:37:17.640Z,96983.72
2023-07-18T23:42:21.217Z,96983.91
2023-07-18T23:47:26.168Z,96986.13
2023-07-18T23:52:29.959Z,96985.66
2023-07-18T23:57:37.594Z,96990.34
